Time;durP1;ratioP1;P1;durP2;ratioP2;P2;SDS_P1;SDS_P2;PMS_P1;PMS_P2;Temp;Humidity;BMP_temperature;BMP_pressure;BME280_temperature;BME280_humidity;BME280_pressure;Samples;Min_cycle;Max_cycle;Signal;HPM_P1;HPM_P2
2023/03/11 00:02:09;;;;;;;2.42;0.70;;;;;;;;;;5102705;28;20200;-68
2023/03/11 00:04:35;;;;;;;0.60;0.60;;;;;;;;;;5102604;28;20191;-68
2023/03/11 00:07:02;;;;;;;0.80;0.80;;;;;;;;;;5102466;28;20242;-68
2023/03/11 00:09:28;;;;;;;0.82;0.82;;;;;;;;;;5102241;28;20215;-69
2023/03/11 00:11:56;;;;;;;1.13;0.60;;;;;;;;;;5102774;28;20196;-68
2023/03/11 00:14:22;;;;;;;0.57;0.57;;;;;;;;;;5102343;28;20219;-69
2023/03/11 00:16:49;;;;;;;0.52;0.52;;;;;;;;;;5102472;28;20210;-69
2023/03/11 00:19:15;;;;;;;1.10;0.70;;;;;;;;;;5102258;28;20195;-69
2023/03/11 00:21:41;;;;;;;0.70;0.70;;;;;;;;;;5102769;28;20196;-69
2023/03/11 00:24:07;;;;;;;0.77;0.77;;;;;;;;;;5102533;28;20237;-69
2023/03/11 00:26:34;;;;;;;0.60;0.60;;;;;;;;;;5102537;28;20196;-69
2023/03/11 00:29:01;;;;;;;0.77;0.77;;;;;;;;;;5102340;28;20238;-69
2023/03/11 00:31:28;;;;;;;0.57;0.57;;;;;;;;;;5102463;28;20199;-69
2023/03/11 00:33:56;;;;;;;0.60;0.60;;;;;;;;;;5103577;28;20219;-69
2023/03/11 00:36:23;;;;;;;0.88;0.60;;;;;;;;;;5106389;28;20199;-69
2023/03/11 00:38:49;;;;;;;1.17;0.70;;;;;;;;;;5106676;28;20195;-69
2023/03/11 00:41:15;;;;;;;0.82;0.82;;;;;;;;;;5106536;28;20495;-69
2023/03/11 00:43:42;;;;;;;1.55;0.90;;;;;;;;;;5106503;28;20191;-69
2023/03/11 00:46:10;;;;;;;0.90;0.80;;;;;;;;;;5106674;28;20199;-69
2023/03/11 00:48:36;;;;;;;0.70;0.70;;;;;;;;;;5106104;28;20191;-69
2023/03/11 00:51:02;;;;;;;1.20;0.88;;;;;;;;;;5106534;28;20503;-69
2023/03/11 00:53:28;;;;;;;0.70;0.70;;;;;;;;;;5106431;28;20215;-69
2023/03/11 00:55:55;;;;;;;1.45;1.08;;;;;;;;;;5106108;28;20218;-69
2023/03/11 00:58:21;;;;;;;0.85;0.85;;;;;;;;;;5106407;28;20204;-69
2023/03/11 01:00:47;;;;;;;0.60;0.60;;;;;;;;;;5106280;28;20395;-69
2023/03/11 01:03:15;;;;;;;0.75;0.75;;;;;;;;;;5105957;28;20192;-69
2023/03/11 01:05:41;;;;;;;1.90;0.88;;;;;;;;;;5106064;28;20249;-69
2023/03/11 01:08:07;;;;;;;0.80;0.80;;;;;;;;;;5106094;28;20203;-69
2023/03/11 01:10:34;;;;;;;1.00;0.90;;;;;;;;;;5106134;28;20672;-69
2023/03/11 01:13:00;;;;;;;0.70;0.70;;;;;;;;;;5105895;28;20196;-69
2023/03/11 01:15:29;;;;;;;1.15;1.08;;;;;;;;;;5105624;28;20525;-69
2023/03/11 01:17:55;;;;;;;0.90;0.90;;;;;;;;;;5105608;28;20196;-69
2023/03/11 01:20:23;;;;;;;1.00;0.75;;;;;;;;;;5105765;28;20199;-69
2023/03/11 01:22:49;;;;;;;0.93;0.93;;;;;;;;;;5105633;28;20241;-69
2023/03/11 01:25:17;;;;;;;0.98;0.98;;;;;;;;;;5105728;28;20192;-69
2023/03/11 01:27:43;;;;;;;1.10;0.82;;;;;;;;;;5105430;28;20220;-69
2023/03/11 01:30:12;;;;;;;1.35;1.25;;;;;;;;;;5105703;28;20245;-69
2023/03/11 01:32:39;;;;;;;1.10;1.10;;;;;;;;;;5105156;28;20195;-69
2023/03/11 01:35:05;;;;;;;1.00;1.00;;;;;;;;;;5105193;28;20460;-69
2023/03/11 01:37:33;;;;;;;1.15;1.10;;;;;;;;;;5105242;28;20247;-69
2023/03/11 01:39:59;;;;;;;4.35;1.20;;;;;;;;;;5104985;28;20196;-69
2023/03/11 01:42:25;;;;;;;1.40;1.13;;;;;;;;;;5105006;28;20242;-69
2023/03/11 01:44:51;;;;;;;1.15;1.00;;;;;;;;;;5104416;28;20195;-70
2023/03/11 01:47:35;;;;;;;1.55;1.25;;;;;;;;;;5104792;28;20437;-69
2023/03/11 01:50:01;;;;;;;0.70;0.70;;;;;;;;;;5104942;28;20204;-70
2023/03/11 01:52:28;;;;;;;2.45;1.02;;;;;;;;;;5105357;28;20204;-70
2023/03/11 01:54:56;;;;;;;1.08;0.85;;;;;;;;;;5105129;28;20223;-67
2023/03/11 01:57:22;;;;;;;0.90;0.90;;;;;;;;;;5105009;28;20196;-68
2023/03/11 01:59:50;;;;;;;1.30;1.20;;;;;;;;;;5104963;28;20265;-69
2023/03/11 02:02:18;;;;;;;0.88;0.88;;;;;;;;;;5105324;28;20195;-67
2023/03/11 02:04:44;;;;;;;1.20;1.10;;;;;;;;;;5104615;28;20237;-70
2023/03/11 02:07:11;;;;;;;1.27;1.10;;;;;;;;;;5104915;28;20271;-68
2023/03/11 02:09:37;;;;;;;1.15;1.10;;;;;;;;;;5104804;28;20246;-68
2023/03/11 02:12:07;;;;;;;3.13;1.38;;;;;;;;;;5104689;28;20195;-68
2023/03/11 02:14:34;;;;;;;1.70;0.95;;;;;;;;;;5104872;28;20220;-68
2023/03/11 02:17:01;;;;;;;1.75;1.20;;;;;;;;;;5104764;28;20195;-70
2023/03/11 02:19:34;;;;;;;0.98;0.98;;;;;;;;;;5104414;28;20500;-68
2023/03/11 02:22:01;;;;;;;1.27;1.20;;;;;;;;;;5104398;28;20493;-68
2023/03/11 02:24:30;;;;;;;3.25;1.30;;;;;;;;;;5103963;28;20195;-69
2023/03/11 02:26:58;;;;;;;1.42;1.33;;;;;;;;;;5104132;28;20270;-69
2023/03/11 02:29:26;;;;;;;2.75;1.00;;;;;;;;;;5104364;28;20412;-69
2023/03/11 02:31:52;;;;;;;3.15;1.23;;;;;;;;;;5104470;28;20196;-69
2023/03/11 02:34:21;;;;;;;1.10;1.08;;;;;;;;;;5104003;28;20453;-70
2023/03/11 02:36:47;;;;;;;1.00;1.00;;;;;;;;;;5104238;28;20200;-68
2023/03/11 02:39:13;;;;;;;1.30;1.20;;;;;;;;;;5103751;28;20241;-69
2023/03/11 02:41:41;;;;;;;1.60;1.27;;;;;;;;;;5104616;28;20196;-69
2023/03/11 02:44:10;;;;;;;1.75;1.00;;;;;;;;;;5104245;28;20195;-69
2023/03/11 02:46:38;;;;;;;0.90;0.90;;;;;;;;;;5103955;28;20207;-69
2023/03/11 02:49:05;;;;;;;2.67;1.00;;;;;;;;;;5103739;28;20195;-69
2023/03/11 02:51:31;;;;;;;1.63;1.00;;;;;;;;;;5103723;28;20196;-69
2023/03/11 02:53:59;;;;;;;1.20;1.20;;;;;;;;;;5103558;28;20216;-69
2023/03/11 02:56:25;;;;;;;1.75;1.50;;;;;;;;;;5102361;28;20280;-68
2023/03/11 02:58:52;;;;;;;1.10;1.00;;;;;;;;;;5103187;28;20196;-69
2023/03/11 03:01:19;;;;;;;2.20;1.00;;;;;;;;;;5103455;28;20196;-69
2023/03/11 03:03:46;;;;;;;1.33;0.95;;;;;;;;;;5103496;28;20199;-69
2023/03/11 03:06:12;;;;;;;1.15;0.80;;;;;;;;;;5103687;28;20203;-69
2023/03/11 03:08:38;;;;;;;2.25;1.00;;;;;;;;;;5103070;28;20204;-69
2023/03/11 03:11:05;;;;;;;0.95;0.82;;;;;;;;;;5103454;28;20195;-69
2023/03/11 03:13:31;;;;;;;1.92;0.95;;;;;;;;;;5103212;28;20195;-69
2023/03/11 03:15:57;;;;;;;2.38;1.23;;;;;;;;;;5103193;28;20256;-69
2023/03/11 03:18:25;;;;;;;1.40;1.15;;;;;;;;;;5103442;28;20195;-69
2023/03/11 03:20:52;;;;;;;2.22;1.10;;;;;;;;;;5103477;28;20203;-68
2023/03/11 03:23:18;;;;;;;3.70;0.80;;;;;;;;;;5103004;28;20229;-69
2023/03/11 03:25:45;;;;;;;2.00;1.10;;;;;;;;;;5103007;28;20422;-68
2023/03/11 03:28:11;;;;;;;1.65;1.00;;;;;;;;;;5102793;28;20588;-69
2023/03/11 03:30:38;;;;;;;3.65;1.10;;;;;;;;;;5103110;28;20242;-67
2023/03/11 03:33:04;;;;;;;1.08;1.05;;;;;;;;;;5103322;28;20511;-69
2023/03/11 03:35:32;;;;;;;4.25;1.23;;;;;;;;;;5102848;28;20223;-69
2023/03/11 03:37:58;;;;;;;0.85;0.85;;;;;;;;;;5103069;28;20440;-69
2023/03/11 03:40:25;;;;;;;3.60;1.25;;;;;;;;;;5102879;28;20491;-69
2023/03/11 03:42:51;;;;;;;1.10;1.00;;;;;;;;;;5103104;28;20199;-69
2023/03/11 03:45:17;;;;;;;6.45;1.02;;;;;;;;;;5102944;28;20203;-69
2023/03/11 03:47:44;;;;;;;4.28;0.82;;;;;;;;;;5103150;28;20425;-69
2023/03/11 03:50:11;;;;;;;2.38;1.08;;;;;;;;;;5102960;28;20196;-69
2023/03/11 03:52:38;;;;;;;4.78;0.88;;;;;;;;;;5102881;28;20240;-69
2023/03/11 03:55:05;;;;;;;2.95;0.80;;;;;;;;;;5102783;28;20539;-69
2023/03/11 03:57:32;;;;;;;0.95;0.80;;;;;;;;;;5102362;28;20218;-69
2023/03/11 03:59:58;;;;;;;1.67;1.25;;;;;;;;;;5102793;28;20195;-69
2023/03/11 04:02:24;;;;;;;1.35;0.82;;;;;;;;;;5102631;28;20196;-69
2023/03/11 04:04:51;;;;;;;3.53;1.05;;;;;;;;;;5102623;28;20407;-69
2023/03/11 04:07:17;;;;;;;2.45;1.00;;;;;;;;;;5102479;28;20196;-69
2023/03/11 04:09:45;;;;;;;3.03;1.35;;;;;;;;;;5102294;28;20204;-69
2023/03/11 04:12:12;;;;;;;7.00;1.25;;;;;;;;;;5102545;28;20204;-69
2023/03/11 04:14:39;;;;;;;2.38;0.98;;;;;;;;;;5102686;28;20219;-69
2023/03/11 04:17:05;;;;;;;6.55;1.20;;;;;;;;;;5102730;28;20240;-69
2023/03/11 04:19:32;;;;;;;1.92;1.27;;;;;;;;;;5102308;28;20192;-69
2023/03/11 04:21:58;;;;;;;4.38;1.27;;;;;;;;;;5102191;28;20191;-69
2023/03/11 04:24:24;;;;;;;2.75;0.80;;;;;;;;;;5102307;28;20220;-69
2023/03/11 04:26:52;;;;;;;1.52;1.00;;;;;;;;;;5102262;28;20203;-69
2023/03/11 04:29:18;;;;;;;2.20;1.02;;;;;;;;;;5102112;28;20245;-69
2023/03/11 04:31:44;;;;;;;2.35;1.17;;;;;;;;;;5102394;28;20196;-69
2023/03/11 04:34:10;;;;;;;3.80;1.38;;;;;;;;;;5102284;28;20199;-69
2023/03/11 04:36:37;;;;;;;1.40;0.80;;;;;;;;;;5102104;28;20196;-69
2023/03/11 04:39:03;;;;;;;2.10;1.15;;;;;;;;;;5101923;28;20204;-69
2023/03/11 04:41:29;;;;;;;2.65;1.20;;;;;;;;;;5102262;28;20208;-69
2023/03/11 04:43:58;;;;;;;1.90;1.00;;;;;;;;;;5102319;28;20627;-69
2023/03/11 04:46:24;;;;;;;1.90;1.10;;;;;;;;;;5102324;28;20230;-69
2023/03/11 04:48:50;;;;;;;1.30;0.93;;;;;;;;;;5102216;28;20196;-69
2023/03/11 04:51:17;;;;;;;1.88;1.25;;;;;;;;;;5102102;28;20241;-69
2023/03/11 04:53:43;;;;;;;2.42;1.10;;;;;;;;;;5101860;28;20196;-69
2023/03/11 04:56:09;;;;;;;3.42;1.25;;;;;;;;;;5101752;28;20216;-69
2023/03/11 04:58:36;;;;;;;4.65;1.27;;;;;;;;;;5101999;28;20291;-69
2023/03/11 05:01:03;;;;;;;1.75;0.98;;;;;;;;;;5101878;28;20312;-69
2023/03/11 05:03:30;;;;;;;1.23;0.90;;;;;;;;;;5101990;28;20202;-69
2023/03/11 05:05:56;;;;;;;2.25;1.23;;;;;;;;;;5101871;28;20498;-69
2023/03/11 05:08:22;;;;;;;3.03;1.27;;;;;;;;;;5101458;28;20196;-69
2023/03/11 05:10:49;;;;;;;2.55;1.23;;;;;;;;;;5101982;28;20233;-69
2023/03/11 05:13:15;;;;;;;1.50;1.23;;;;;;;;;;5102263;28;20503;-69
2023/03/11 05:15:41;;;;;;;3.20;1.48;;;;;;;;;;5101936;28;20234;-69
2023/03/11 05:18:09;;;;;;;5.97;1.67;;;;;;;;;;5101602;28;20241;-69
2023/03/11 05:20:35;;;;;;;9.18;1.63;;;;;;;;;;5104034;28;20195;-69
2023/03/11 05:23:01;;;;;;;5.65;1.00;;;;;;;;;;5105635;28;20202;-69
2023/03/11 05:25:27;;;;;;;2.90;1.52;;;;;;;;;;5105817;28;20191;-69
2023/03/11 05:27:54;;;;;;;3.50;1.10;;;;;;;;;;5105646;28;20215;-69
2023/03/11 05:30:20;;;;;;;3.40;1.50;;;;;;;;;;5105362;28;20196;-69
2023/03/11 05:32:46;;;;;;;3.15;1.33;;;;;;;;;;5105257;28;20196;-70
2023/03/11 05:35:14;;;;;;;6.00;1.67;;;;;;;;;;5105016;28;20211;-70
2023/03/11 05:37:40;;;;;;;4.43;2.08;;;;;;;;;;5104952;28;20212;-70
2023/03/11 05:40:07;;;;;;;4.22;1.80;;;;;;;;;;5105240;28;20195;-69
2023/03/11 05:42:34;;;;;;;2.75;1.88;;;;;;;;;;5105250;28;20460;-69
2023/03/11 05:45:00;;;;;;;5.03;1.73;;;;;;;;;;5105139;28;20253;-69
2023/03/11 05:47:27;;;;;;;11.90;2.00;;;;;;;;;;5105164;28;20526;-70
2023/03/11 05:49:53;;;;;;;4.82;1.63;;;;;;;;;;5104509;28;20440;-70
2023/03/11 05:52:20;;;;;;;2.17;1.50;;;;;;;;;;5104825;28;20196;-70
2023/03/11 05:54:48;;;;;;;4.05;1.52;;;;;;;;;;5104724;28;20249;-70
2023/03/11 05:57:15;;;;;;;4.15;1.77;;;;;;;;;;5105015;28;20381;-70
2023/03/11 05:59:41;;;;;;;2.65;1.30;;;;;;;;;;5104468;28;20196;-70
2023/03/11 06:02:07;;;;;;;2.40;1.52;;;;;;;;;;5104737;28;20207;-70
2023/03/11 06:04:33;;;;;;;2.88;1.30;;;;;;;;;;5104363;28;20499;-70
2023/03/11 06:07:00;;;;;;;3.28;1.30;;;;;;;;;;5104800;28;20525;-70
2023/03/11 06:09:27;;;;;;;8.88;1.70;;;;;;;;;;5104157;28;20214;-70
2023/03/11 06:11:54;;;;;;;9.88;2.08;;;;;;;;;;5104931;28;20216;-70
2023/03/11 06:14:21;;;;;;;5.13;2.00;;;;;;;;;;5104438;28;20204;-70
2023/03/11 06:16:47;;;;;;;2.72;1.60;;;;;;;;;;5104298;28;20216;-68
2023/03/11 06:19:13;;;;;;;4.38;2.15;;;;;;;;;;5104400;28;20207;-68
2023/03/11 06:21:39;;;;;;;3.05;1.90;;;;;;;;;;5104396;28;20249;-70
2023/03/11 06:24:06;;;;;;;3.90;1.85;;;;;;;;;;5104460;28;20199;-69
2023/03/11 06:26:33;;;;;;;4.05;2.10;;;;;;;;;;5104079;28;20203;-69
2023/03/11 06:29:00;;;;;;;4.45;2.90;;;;;;;;;;5103959;28;20222;-68
2023/03/11 06:31:27;;;;;;;4.57;2.13;;;;;;;;;;5103876;28;20196;-70
2023/03/11 06:33:54;;;;;;;5.05;2.25;;;;;;;;;;5103679;28;20207;-70
2023/03/11 06:36:21;;;;;;;5.35;1.85;;;;;;;;;;5103831;28;20212;-68
2023/03/11 06:38:48;;;;;;;3.60;1.45;;;;;;;;;;5103778;28;20196;-70
2023/03/11 06:41:15;;;;;;;3.60;1.50;;;;;;;;;;5103418;28;20196;-70
2023/03/11 06:43:43;;;;;;;3.22;1.35;;;;;;;;;;5103412;28;20271;-69
2023/03/11 06:46:10;;;;;;;2.90;1.50;;;;;;;;;;5103700;28;20192;-70
2023/03/11 06:48:36;;;;;;;4.35;1.13;;;;;;;;;;5103451;28;20426;-70
2023/03/11 06:51:02;;;;;;;3.55;1.55;;;;;;;;;;5103789;28;20450;-70
2023/03/11 06:53:29;;;;;;;2.35;1.30;;;;;;;;;;5103385;28;20237;-70
2023/03/11 06:55:59;;;;;;;4.10;1.40;;;;;;;;;;5103479;28;20215;-70
2023/03/11 06:58:25;;;;;;;4.75;1.25;;;;;;;;;;5103395;28;20266;-70
2023/03/11 07:00:53;;;;;;;3.90;1.33;;;;;;;;;;5103440;28;20196;-70
2023/03/11 07:03:19;;;;;;;3.65;1.05;;;;;;;;;;5103336;28;20421;-70
2023/03/11 07:05:45;;;;;;;4.53;1.27;;;;;;;;;;5103536;28;20192;-70
2023/03/11 07:08:12;;;;;;;3.28;1.10;;;;;;;;;;5103548;28;20203;-70
2023/03/11 07:10:38;;;;;;;3.22;1.40;;;;;;;;;;5103442;28;20203;-70
2023/03/11 07:13:04;;;;;;;3.33;1.58;;;;;;;;;;5103827;28;20200;-70
2023/03/11 07:15:30;;;;;;;5.18;1.73;;;;;;;;;;5103239;28;20239;-70
2023/03/11 07:17:58;;;;;;;6.65;1.35;;;;;;;;;;5103703;28;20444;-70
2023/03/11 07:20:24;;;;;;;6.68;1.50;;;;;;;;;;5103111;28;20195;-70
2023/03/11 07:22:51;;;;;;;3.97;1.17;;;;;;;;;;5103422;28;20234;-70
2023/03/11 07:25:17;;;;;;;3.85;1.15;;;;;;;;;;5103458;28;20196;-70
2023/03/11 07:27:43;;;;;;;4.65;2.10;;;;;;;;;;5103208;28;20611;-70
2023/03/11 07:30:10;;;;;;;5.80;1.33;;;;;;;;;;5103326;28;20203;-70
2023/03/11 07:32:36;;;;;;;3.03;1.75;;;;;;;;;;5103830;28;20196;-70
2023/03/11 07:35:04;;;;;;;2.72;1.00;;;;;;;;;;5103196;28;20202;-70
2023/03/11 07:37:30;;;;;;;2.88;1.45;;;;;;;;;;5103189;28;20199;-70
2023/03/11 07:39:57;;;;;;;3.03;1.23;;;;;;;;;;5102987;28;20421;-69
2023/03/11 07:42:23;;;;;;;3.67;2.50;;;;;;;;;;5102492;28;20488;-70
2023/03/11 07:44:50;;;;;;;7.35;1.42;;;;;;;;;;5103155;28;20204;-70
2023/03/11 07:47:16;;;;;;;3.97;1.55;;;;;;;;;;5102805;28;20191;-70
2023/03/11 07:49:42;;;;;;;3.67;1.48;;;;;;;;;;5102898;28;20199;-70
2023/03/11 07:52:10;;;;;;;4.47;1.40;;;;;;;;;;5102876;28;20195;-70
2023/03/11 07:54:36;;;;;;;5.68;1.65;;;;;;;;;;5102940;28;20195;-70
2023/03/11 07:57:03;;;;;;;6.28;1.20;;;;;;;;;;5102616;28;20227;-70
2023/03/11 07:59:29;;;;;;;7.32;1.77;;;;;;;;;;5102915;28;20196;-70
2023/03/11 08:01:55;;;;;;;2.92;1.00;;;;;;;;;;5102923;28;20204;-70
2023/03/11 08:04:22;;;;;;;7.45;1.58;;;;;;;;;;5103048;28;20206;-70
2023/03/11 08:06:48;;;;;;;6.20;1.25;;;;;;;;;;5103150;28;20188;-70
2023/03/11 08:09:16;;;;;;;6.20;1.60;;;;;;;;;;5102597;28;20274;-70
2023/03/11 08:11:42;;;;;;;5.15;1.45;;;;;;;;;;5102577;28;20522;-70
2023/03/11 08:14:09;;;;;;;7.82;1.80;;;;;;;;;;5102905;28;20202;-70
2023/03/11 08:16:35;;;;;;;2.70;1.33;;;;;;;;;;5102597;28;20219;-70
2023/03/11 08:19:01;;;;;;;3.67;1.45;;;;;;;;;;5102502;28;20511;-70
2023/03/11 08:21:30;;;;;;;5.47;1.35;;;;;;;;;;5102882;28;20365;-70
2023/03/11 08:23:57;;;;;;;5.75;1.58;;;;;;;;;;5102468;28;20195;-70
2023/03/11 08:26:25;;;;;;;3.20;1.20;;;;;;;;;;5102511;28;20195;-70
2023/03/11 08:28:51;;;;;;;3.45;1.70;;;;;;;;;;5102299;28;20219;-70
2023/03/11 08:31:18;;;;;;;4.05;1.33;;;;;;;;;;5102552;28;20195;-69
2023/03/11 08:33:45;;;;;;;6.28;1.17;;;;;;;;;;5102569;28;20200;-70
2023/03/11 08:36:11;;;;;;;2.88;1.33;;;;;;;;;;5102347;28;20239;-70
2023/03/11 08:38:38;;;;;;;2.78;1.10;;;;;;;;;;5102353;28;20200;-70
2023/03/11 08:41:04;;;;;;;6.65;1.30;;;;;;;;;;5102273;28;20195;-70
2023/03/11 08:43:32;;;;;;;3.13;1.30;;;;;;;;;;5102518;28;20207;-70
2023/03/11 08:45:59;;;;;;;3.85;1.25;;;;;;;;;;5102458;28;20229;-70
2023/03/11 08:48:25;;;;;;;6.18;1.30;;;;;;;;;;5102168;28;20557;-70
2023/03/11 08:50:52;;;;;;;1.02;1.00;;;;;;;;;;5102664;28;20195;-69
2023/03/11 08:53:18;;;;;;;2.70;1.30;;;;;;;;;;5102370;28;20352;-70
2023/03/11 08:55:44;;;;;;;8.00;1.60;;;;;;;;;;5104931;28;20222;-70
2023/03/11 08:58:11;;;;;;;2.35;1.02;;;;;;;;;;5106106;28;20200;-70
2023/03/11 09:00:38;;;;;;;9.73;2.00;;;;;;;;;;5106229;28;20196;-70
2023/03/11 09:03:04;;;;;;;3.42;1.40;;;;;;;;;;5106185;28;20199;-70
2023/03/11 09:05:31;;;;;;;5.63;1.45;;;;;;;;;;5106387;28;20241;-70
2023/03/11 09:07:57;;;;;;;0.90;0.90;;;;;;;;;;5105778;28;20195;-70
2023/03/11 09:10:23;;;;;;;1.60;1.20;;;;;;;;;;5106182;28;20204;-69
2023/03/11 09:12:49;;;;;;;1.13;0.82;;;;;;;;;;5106033;28;20241;-70
2023/03/11 09:15:16;;;;;;;4.80;2.45;;;;;;;;;;5106193;28;20195;-70
2023/03/11 09:17:43;;;;;;;5.00;2.50;;;;;;;;;;5105945;28;20219;-69
2023/03/11 09:20:11;;;;;;;3.83;2.08;;;;;;;;;;5105592;28;20241;-69
2023/03/11 09:22:38;;;;;;;2.45;1.90;;;;;;;;;;5105796;28;20205;-69
2023/03/11 09:25:04;;;;;;;5.38;1.38;;;;;;;;;;5105933;28;20196;-69
2023/03/11 09:27:30;;;;;;;3.33;2.25;;;;;;;;;;5105661;28;20211;-70
2023/03/11 09:29:57;;;;;;;3.55;2.50;;;;;;;;;;5105660;28;20196;-70
2023/03/11 09:32:23;;;;;;;4.40;1.55;;;;;;;;;;5106292;28;20196;-70
2023/03/11 09:34:51;;;;;;;4.05;1.48;;;;;;;;;;5105531;28;20204;-70
2023/03/11 09:37:17;;;;;;;1.67;1.17;;;;;;;;;;5105393;28;20231;-70
2023/03/11 09:39:43;;;;;;;3.60;1.15;;;;;;;;;;5105539;28;20200;-70
2023/03/11 09:42:14;;;;;;;3.85;1.27;;;;;;;;;;5105529;28;20206;-69
2023/03/11 09:44:42;;;;;;;3.13;1.77;;;;;;;;;;5105515;28;20202;-69
2023/03/11 09:47:30;;;;;;;3.30;1.25;;;;;;;;;;5105330;28;20383;-69
2023/03/11 09:50:10;;;;;;;3.03;1.20;;;;;;;;;;5105520;28;20491;-69
2023/03/11 09:52:40;;;;;;;3.15;1.00;;;;;;;;;;5105414;28;20195;-69
2023/03/11 09:55:27;;;;;;;1.58;0.98;;;;;;;;;;5105199;28;20202;-69
2023/03/11 09:57:53;;;;;;;1.30;0.90;;;;;;;;;;5104891;28;20231;-69
2023/03/11 10:00:20;;;;;;;4.97;0.85;;;;;;;;;;5105136;28;20499;-70
2023/03/11 10:02:47;;;;;;;4.28;0.90;;;;;;;;;;5105195;28;20221;-70
2023/03/11 10:05:16;;;;;;;3.25;1.13;;;;;;;;;;5104456;28;20196;-70
2023/03/11 10:07:45;;;;;;;4.15;1.10;;;;;;;;;;5104905;28;20245;-70
2023/03/11 10:10:12;;;;;;;2.03;0.90;;;;;;;;;;5104697;28;20332;-70
2023/03/11 10:12:44;;;;;;;0.93;0.77;;;;;;;;;;5104943;28;20195;-70
2023/03/11 10:15:21;;;;;;;2.72;0.63;;;;;;;;;;5105015;28;20519;-69
2023/03/11 10:17:55;;;;;;;1.92;0.80;;;;;;;;;;5104936;28;20219;-70
2023/03/11 10:20:26;;;;;;;4.10;1.15;;;;;;;;;;5104659;28;20521;-70
2023/03/11 10:22:57;;;;;;;1.05;0.98;;;;;;;;;;5104674;28;20230;-69
2023/03/11 10:25:25;;;;;;;1.20;0.50;;;;;;;;;;5104761;28;20195;-70
2023/03/11 10:27:52;;;;;;;2.25;0.57;;;;;;;;;;5104272;28;20357;-61
2023/03/11 10:30:23;;;;;;;2.55;1.02;;;;;;;;;;5104325;28;20195;-61
2023/03/11 10:32:51;;;;;;;1.80;0.90;;;;;;;;;;5104413;28;20241;-61
2023/03/11 10:35:19;;;;;;;1.30;0.95;;;;;;;;;;5104068;28;20200;-61
2023/03/11 10:37:50;;;;;;;0.80;0.80;;;;;;;;;;5103920;28;20265;-61
2023/03/11 10:40:23;;;;;;;1.13;1.02;;;;;;;;;;5103835;28;20213;-61
2023/03/11 10:42:51;;;;;;;3.30;0.70;;;;;;;;;;5104209;28;20207;-61
2023/03/11 10:45:19;;;;;;;2.85;0.65;;;;;;;;;;5103289;28;20202;-64
2023/03/11 10:47:45;;;;;;;0.80;0.60;;;;;;;;;;5103687;28;20187;-62
2023/03/11 10:50:15;;;;;;;0.45;0.45;;;;;;;;;;5103743;28;20218;-62
2023/03/11 10:52:43;;;;;;;0.80;0.80;;;;;;;;;;5097766;28;20196;-61
2023/03/11 10:55:18;;;;;;;1.20;0.88;;;;;;;;;;5092435;28;20371;-62
2023/03/11 10:57:46;;;;;;;2.50;1.15;;;;;;;;;;5094805;28;20219;-62
2023/03/11 11:00:27;;;;;;;3.22;0.95;;;;;;;;;;5103412;28;20271;-62
2023/03/11 11:02:56;;;;;;;1.90;1.40;;;;;;;;;;5103734;28;20500;-62
2023/03/11 11:05:27;;;;;;;1.88;1.02;;;;;;;;;;5103855;28;20266;-62
2023/03/11 11:08:02;;;;;;;4.68;1.38;;;;;;;;;;5103802;28;20199;-61
2023/03/11 11:10:30;;;;;;;3.08;1.30;;;;;;;;;;5103589;28;20207;-62
2023/03/11 11:12:57;;;;;;;3.72;1.23;;;;;;;;;;5085554;28;20516;-63
2023/03/11 11:15:25;;;;;;;1.90;0.98;;;;;;;;;;5097100;28;20407;-61
2023/03/11 11:17:54;;;;;;;1.52;1.08;;;;;;;;;;5084670;28;20431;-61
2023/03/11 11:20:21;;;;;;;5.05;1.02;;;;;;;;;;5099963;28;20203;-63
2023/03/11 11:22:49;;;;;;;3.92;1.10;;;;;;;;;;5099376;28;20237;-61
2023/03/11 11:25:24;;;;;;;1.98;1.20;;;;;;;;;;5100647;28;20214;-61
2023/03/11 11:27:55;;;;;;;1.73;1.10;;;;;;;;;;5100835;28;20232;-61
2023/03/11 11:30:22;;;;;;;1.95;0.98;;;;;;;;;;5097677;28;20500;-61
2023/03/11 11:32:52;;;;;;;2.17;0.85;;;;;;;;;;5080461;28;20215;-62
2023/03/11 11:35:19;;;;;;;2.30;0.70;;;;;;;;;;5080715;28;20403;-62
2023/03/11 11:37:46;;;;;;;0.98;0.90;;;;;;;;;;5079994;28;20531;-63
2023/03/11 11:40:18;;;;;;;1.85;1.30;;;;;;;;;;5079356;28;20208;-63
2023/03/11 11:42:46;;;;;;;2.53;1.20;;;;;;;;;;5079807;28;20359;-61
2023/03/11 11:45:17;;;;;;;3.60;1.08;;;;;;;;;;5081742;28;20537;-62
2023/03/11 11:47:46;;;;;;;3.20;1.30;;;;;;;;;;5101650;28;20418;-62
2023/03/11 11:50:16;;;;;;;2.10;0.80;;;;;;;;;;5100719;28;20208;-62
2023/03/11 11:52:44;;;;;;;1.08;0.90;;;;;;;;;;5087210;28;20756;-62
2023/03/11 11:55:16;;;;;;;3.63;1.38;;;;;;;;;;5080058;28;20209;-61
2023/03/11 11:57:43;;;;;;;2.38;0.82;;;;;;;;;;5079556;28;20462;-61
2023/03/11 12:00:17;;;;;;;3.40;1.00;;;;;;;;;;5078873;28;20216;-61
2023/03/11 12:02:52;;;;;;;1.92;0.70;;;;;;;;;;5081732;28;20208;-62
2023/03/11 12:05:23;;;;;;;1.45;0.80;;;;;;;;;;5080642;28;20560;-61
2023/03/11 12:07:58;;;;;;;1.92;0.85;;;;;;;;;;5100093;28;20203;-61
2023/03/11 12:10:27;;;;;;;1.20;0.95;;;;;;;;;;5090510;28;20261;-61
2023/03/11 12:13:04;;;;;;;4.88;0.73;;;;;;;;;;5092159;28;20440;-61
2023/03/11 12:15:35;;;;;;;2.85;0.80;;;;;;;;;;5092173;28;20245;-61
2023/03/11 12:18:04;;;;;;;4.53;0.90;;;;;;;;;;5099399;28;20556;-60
2023/03/11 12:20:32;;;;;;;2.83;0.90;;;;;;;;;;5087730;28;20543;-61
2023/03/11 12:23:15;;;;;;;3.95;1.00;;;;;;;;;;5080238;28;20433;-61
2023/03/11 12:25:44;;;;;;;1.92;0.60;;;;;;;;;;5092904;28;20208;-61
2023/03/11 12:28:19;;;;;;;0.70;0.63;;;;;;;;;;5099685;28;20224;-61
2023/03/11 12:30:49;;;;;;;2.90;1.00;;;;;;;;;;5104001;28;20289;-60
2023/03/11 12:33:17;;;;;;;4.78;1.10;;;;;;;;;;5103877;28;20253;-61
2023/03/11 12:35:48;;;;;;;1.73;1.02;;;;;;;;;;5103763;28;20204;-61
2023/03/11 12:38:16;;;;;;;1.17;1.05;;;;;;;;;;5103414;28;20603;-60
2023/03/11 12:40:50;;;;;;;2.17;1.00;;;;;;;;;;5103523;28;20207;-61
2023/03/11 12:43:28;;;;;;;3.75;1.10;;;;;;;;;;5103572;28;20277;-60
2023/03/11 12:45:58;;;;;;;2.72;0.70;;;;;;;;;;5104009;28;20560;-61
2023/03/11 12:48:34;;;;;;;3.70;1.10;;;;;;;;;;5103057;28;20550;-62
2023/03/11 12:51:00;;;;;;;1.42;0.70;;;;;;;;;;5103923;28;20227;-61
2023/03/11 12:53:41;;;;;;;2.15;0.98;;;;;;;;;;5103204;28;20208;-61
2023/03/11 12:56:13;;;;;;;2.97;1.80;;;;;;;;;;5103164;28;20227;-61
2023/03/11 12:58:51;;;;;;;1.58;1.10;;;;;;;;;;5082921;28;20490;-61
2023/03/11 13:01:29;;;;;;;1.10;0.95;;;;;;;;;;5082534;28;20212;-62
2023/03/11 13:04:03;;;;;;;1.90;1.10;;;;;;;;;;5082914;28;20208;-62
2023/03/11 13:06:41;;;;;;;3.65;1.40;;;;;;;;;;5087512;28;20413;-62
2023/03/11 13:09:13;;;;;;;1.27;1.13;;;;;;;;;;5102667;28;20231;-62
2023/03/11 13:11:42;;;;;;;3.72;2.47;;;;;;;;;;5102553;28;20200;-63
2023/03/11 13:14:11;;;;;;;1.77;1.20;;;;;;;;;;5102380;28;20515;-62
2023/03/11 13:16:39;;;;;;;1.63;1.02;;;;;;;;;;5102612;28;20523;-63
2023/03/11 13:19:30;;;;;;;2.60;0.98;;;;;;;;;;5102505;28;20211;-62
2023/03/11 13:21:58;;;;;;;1.95;0.93;;;;;;;;;;5087088;28;20450;-62
2023/03/11 13:24:40;;;;;;;3.28;1.40;;;;;;;;;;5102664;28;20207;-62
2023/03/11 13:27:10;;;;;;;1.77;1.20;;;;;;;;;;5102342;28;20210;-62
2023/03/11 13:29:44;;;;;;;3.60;1.30;;;;;;;;;;5102532;28;20775;-63
2023/03/11 13:32:38;;;;;;;0.90;0.85;;;;;;;;;;5102151;28;20507;-63
2023/03/11 13:35:11;;;;;;;1.98;0.85;;;;;;;;;;5065131;28;20261;-62
2023/03/11 13:37:44;;;;;;;2.10;0.95;;;;;;;;;;5102363;28;20280;-62
2023/03/11 13:40:18;;;;;;;1.65;1.05;;;;;;;;;;5084271;28;20227;-62
2023/03/11 13:42:46;;;;;;;1.83;1.00;;;;;;;;;;5081689;28;20257;-62
2023/03/11 13:45:16;;;;;;;1.23;1.13;;;;;;;;;;5100500;28;20204;-61
2023/03/11 13:47:45;;;;;;;1.95;1.00;;;;;;;;;;5102407;28;20432;-62
2023/03/11 13:50:16;;;;;;;1.15;1.10;;;;;;;;;;5102008;28;20204;-62
2023/03/11 13:52:46;;;;;;;1.80;1.00;;;;;;;;;;5102173;28;20227;-61
2023/03/11 13:55:18;;;;;;;0.80;0.80;;;;;;;;;;5101862;28;20198;-61
2023/03/11 13:57:49;;;;;;;2.70;0.88;;;;;;;;;;5101857;28;20223;-60
2023/03/11 14:00:17;;;;;;;2.15;0.80;;;;;;;;;;5102337;28;20249;-63
2023/03/11 14:02:49;;;;;;;2.90;0.80;;;;;;;;;;5097987;28;20534;-60
2023/03/11 14:05:19;;;;;;;2.15;0.90;;;;;;;;;;5081842;28;20219;-62
2023/03/11 14:07:45;;;;;;;2.60;0.85;;;;;;;;;;5097350;28;20207;-61
2023/03/11 14:10:18;;;;;;;1.77;0.80;;;;;;;;;;5101409;28;20274;-62
2023/03/11 14:12:45;;;;;;;2.15;1.20;;;;;;;;;;5099235;28;20208;-61
2023/03/11 14:15:13;;;;;;;0.88;0.80;;;;;;;;;;5099264;28;20211;-61
2023/03/11 14:17:39;;;;;;;1.75;0.90;;;;;;;;;;5099294;28;20280;-60
2023/03/11 14:20:06;;;;;;;2.05;0.82;;;;;;;;;;5099640;28;20211;-61
2023/03/11 14:22:34;;;;;;;1.92;0.80;;;;;;;;;;5100051;28;20270;-62
2023/03/11 14:25:02;;;;;;;4.78;0.90;;;;;;;;;;5104586;28;20241;-62
2023/03/11 14:27:28;;;;;;;1.98;0.95;;;;;;;;;;5104500;28;20216;-62
2023/03/11 14:29:54;;;;;;;1.13;0.88;;;;;;;;;;5104269;28;20196;-62
2023/03/11 14:32:25;;;;;;;1.73;1.15;;;;;;;;;;5104054;28;20233;-62
2023/03/11 14:34:51;;;;;;;1.55;0.80;;;;;;;;;;5104068;28;20200;-63
2023/03/11 14:37:24;;;;;;;0.98;0.80;;;;;;;;;;5103670;28;20207;-62
2023/03/11 14:39:52;;;;;;;3.20;1.10;;;;;;;;;;5103952;28;20199;-63
2023/03/11 14:42:20;;;;;;;2.20;1.00;;;;;;;;;;5104021;28;20195;-63
2023/03/11 14:44:48;;;;;;;2.15;1.08;;;;;;;;;;5103752;28;20196;-61
2023/03/11 14:47:17;;;;;;;1.60;0.80;;;;;;;;;;5104092;28;20196;-61
2023/03/11 14:49:43;;;;;;;2.90;1.00;;;;;;;;;;5103311;28;20398;-61